Time;durP1;ratioP1;P1;durP2;ratioP2;P2;SDS_P1;SDS_P2;PMS_P1;PMS_P2;Temp;Humidity;BMP_temperature;BMP_pressure;BME280_temperature;BME280_humidity;BME280_pressure;Samples;Min_cycle;Max_cycle;Signal;HPM_P1;HPM_P2
2022/07/12 00:00:54;;;;;;;46.08;43.67;;;;;;;25.36;42.58;102290.53;4970874;28;20031;-81
2022/07/12 00:03:19;;;;;;;45.13;42.97;;;;;;;25.34;42.50;102284.47;4971381;28;20114;-77
2022/07/12 00:05:44;;;;;;;45.00;42.85;;;;;;;25.32;42.17;102281.19;4956245;28;20412;-82
2022/07/12 00:08:10;;;;;;;46.03;43.72;;;;;;;25.29;42.76;102284.56;4955925;28;20122;-81
2022/07/12 00:10:35;;;;;;;45.83;43.63;;;;;;;25.26;42.77;102281.28;4955772;28;20487;-82
2022/07/12 00:13:02;;;;;;;47.22;44.88;;;;;;;25.24;42.25;102283.53;4970681;28;20471;-82
2022/07/12 00:15:28;;;;;;;47.58;45.28;;;;;;;25.21;42.73;102277.78;4956022;28;20440;-81
2022/07/12 00:17:53;;;;;;;46.10;43.88;;;;;;;25.20;42.47;102290.81;4954764;29;20039;-79
2022/07/12 00:20:18;;;;;;;46.50;44.20;;;;;;;25.17;42.44;102296.09;4955396;28;20466;-80
2022/07/12 00:22:46;;;;;;;46.42;44.22;;;;;;;25.13;42.67;102293.13;4955663;28;20031;-81
2022/07/12 00:25:12;;;;;;;46.50;44.20;;;;;;;25.12;42.47;102294.22;4955897;28;20047;-80
2022/07/12 00:27:37;;;;;;;47.05;44.58;;;;;;;25.09;42.29;102286.53;4955463;28;20032;-81
2022/07/12 00:30:04;;;;;;;48.17;45.72;;;;;;;25.07;42.46;102293.50;4955464;28;20042;-81
2022/07/12 00:32:30;;;;;;;46.03;43.83;;;;;;;25.03;42.77;102296.88;4956086;28;20035;-81
2022/07/12 00:34:55;;;;;;;45.67;43.28;;;;;;;25.01;42.84;102290.00;4970518;28;20033;-81
2022/07/12 00:37:20;;;;;;;45.08;42.78;;;;;;;24.99;42.79;102290.31;4955233;28;20150;-79
2022/07/12 00:39:46;;;;;;;45.78;43.47;;;;;;;24.97;42.45;102287.03;4955415;28;20039;-80
2022/07/12 00:42:11;;;;;;;46.13;43.67;;;;;;;24.95;42.46;102280.19;4954166;29;20387;-80
2022/07/12 00:44:36;;;;;;;44.85;42.55;;;;;;;24.91;42.89;102274.41;4955885;28;20039;-81
2022/07/12 00:47:02;;;;;;;46.05;43.55;;;;;;;24.89;42.79;102282.19;4957919;28;20043;-81
2022/07/12 00:49:30;;;;;;;45.83;43.63;;;;;;;24.86;42.43;102282.78;4961686;28;20031;-81
2022/07/12 00:51:56;;;;;;;47.30;44.95;;;;;;;24.84;42.43;102282.28;4961646;28;20039;-80
2022/07/12 00:54:22;;;;;;;44.15;41.88;;;;;;;24.80;42.90;102284.84;4961706;28;20134;-81
2022/07/12 00:56:47;;;;;;;45.88;43.20;;;;;;;24.79;42.90;102285.13;4962249;28;20093;-80
2022/07/12 00:59:13;;;;;;;44.17;41.97;;;;;;;24.76;42.99;102281.03;4962038;28;20035;-87
2022/07/12 01:01:39;;;;;;;44.95;42.75;;;;;;;24.73;42.90;102276.09;4961288;28;20035;-80
2022/07/12 01:04:05;;;;;;;47.20;44.90;;;;;;;24.72;42.56;102273.63;4961763;28;20042;-80
2022/07/12 01:06:32;;;;;;;44.90;42.47;;;;;;;24.69;42.95;102274.25;4960395;29;20031;-79
2022/07/12 01:09:00;;;;;;;44.47;42.17;;;;;;;24.66;43.03;102275.66;4961887;28;20039;-81
2022/07/12 01:11:26;;;;;;;;;;;;;;;24.62;42.42;102274.66;4962295;28;20047;-81
2022/07/12 01:13:54;;;;;;;45.88;43.50;;;;;;;24.57;42.53;102275.53;4961446;29;19918;-81
2022/07/12 01:16:21;;;;;;;42.08;39.97;;;;;;;24.56;42.70;102271.13;4961604;28;20511;-82
2022/07/12 01:18:46;;;;;;;41.88;38.83;;;;;;;24.53;42.95;102274.50;4976292;28;20035;-82
2022/07/12 01:21:18;;;;;;;44.00;41.80;;;;;;;24.52;42.90;102274.78;4961431;28;20494;-80
2022/07/12 01:23:45;;;;;;;43.20;41.03;;;;;;;24.49;42.90;102270.69;4976031;28;20043;-81
2022/07/12 01:26:11;;;;;;;45.45;43.20;;;;;;;24.47;42.77;102274.84;4961390;28;20059;-80
2022/07/12 01:28:37;;;;;;;44.67;42.45;;;;;;;24.44;42.88;102272.66;4960163;29;20031;-80
2022/07/12 01:31:03;;;;;;;47.80;45.40;;;;;;;24.42;42.76;102275.75;4961339;28;20035;-81
2022/07/12 01:33:29;;;;;;;42.22;40.13;;;;;;;24.39;43.10;102268.03;4961569;28;20435;-81
2022/07/12 01:35:54;;;;;;;44.05;41.58;;;;;;;24.38;42.44;102274.69;4960954;28;20451;-80
2022/07/12 01:38:20;;;;;;;42.83;40.72;;;;;;;24.35;42.55;102278.06;4961694;28;20035;-79
2022/07/12 01:40:47;;;;;;;43.78;41.58;;;;;;;24.33;42.99;102277.53;4960465;29;20048;-79
2022/07/12 01:43:12;;;;;;;44.42;41.63;;;;;;;24.30;42.57;102278.13;4961825;28;20066;-80
2022/07/12 01:45:38;;;;;;;43.83;41.53;;;;;;;24.27;42.61;102270.47;4961474;28;20043;-80
2022/07/12 01:48:04;;;;;;;44.40;42.10;;;;;;;24.24;42.55;102271.88;4976488;28;20047;-80
2022/07/12 01:50:30;;;;;;;42.35;40.22;;;;;;;24.23;42.95;102264.69;4976674;28;20046;-81
2022/07/12 01:52:55;;;;;;;40.85;38.85;;;;;;;24.19;42.97;102263.63;4962077;28;20423;-81
2022/07/12 01:55:21;;;;;;;42.28;40.08;;;;;;;24.16;42.75;102262.28;4976403;28;20459;-81
2022/07/12 01:57:46;;;;;;;42.20;40.03;;;;;;;24.15;42.61;102262.63;4960675;28;20082;-80
2022/07/12 02:00:13;;;;;;;43.20;41.05;;;;;;;24.11;42.76;102259.59;4957142;28;20082;-79
2022/07/12 02:02:39;;;;;;;42.65;40.55;;;;;;;24.09;42.70;102264.63;4957789;28;20114;-80
2022/07/12 02:05:05;;;;;;;44.08;41.88;;;;;;;24.06;42.56;102265.19;4958328;28;20111;-80
2022/07/12 02:07:31;;;;;;;40.90;38.85;;;;;;;24.04;42.37;102267.47;4957900;28;20038;-81
2022/07/12 02:09:57;;;;;;;42.88;40.78;;;;;;;24.03;43.07;102265.00;4957950;28;20055;-82
2022/07/12 02:12:23;;;;;;;44.00;41.80;;;;;;;24.00;42.81;102269.16;4956859;29;20051;-81
2022/07/12 02:14:49;;;;;;;41.97;39.83;;;;;;;23.96;42.57;102271.72;4957888;28;20130;-80
2022/07/12 02:17:15;;;;;;;43.05;40.75;;;;;;;23.95;42.71;102260.94;4957397;28;20042;-79
2022/07/12 02:19:40;;;;;;;42.05;39.85;;;;;;;23.94;42.78;102264.84;4957977;28;20027;-80
2022/07/12 02:22:05;;;;;;;44.10;41.80;;;;;;;23.90;42.52;102269.31;4957966;28;20063;-79
2022/07/12 02:24:31;;;;;;;43.00;40.88;;;;;;;23.87;43.00;102267.16;4957783;28;20035;-80
2022/07/12 02:26:56;;;;;;;42.35;40.15;;;;;;;23.85;43.16;102274.88;4957458;28;20527;-79
2022/07/12 02:29:22;;;;;;;41.38;39.17;;;;;;;23.82;42.93;102275.50;4957262;28;20039;-79
2022/07/12 02:31:47;;;;;;;41.33;39.22;;;;;;;23.81;42.68;102276.59;4957644;28;20443;-79
2022/07/12 02:34:12;;;;;;;41.35;39.25;;;;;;;23.77;43.18;102275.56;4956310;28;20152;-81
2022/07/12 02:36:38;;;;;;;41.67;39.42;;;;;;;23.74;42.93;102272.25;4957783;28;20058;-80
2022/07/12 02:39:04;;;;;;;41.25;39.13;;;;;;;23.72;43.33;102268.97;4972170;28;20105;-79
2022/07/12 02:41:33;;;;;;;41.50;39.40;;;;;;;23.69;43.07;102263.19;4957234;28;20074;-80
2022/07/12 02:43:59;;;;;;;41.00;38.80;;;;;;;23.66;43.13;102270.13;4957793;28;20031;-80
2022/07/12 02:46:25;;;;;;;41.60;39.53;;;;;;;23.65;43.40;102268.47;4956922;28;20061;-79
2022/07/12 02:48:51;;;;;;;43.30;40.90;;;;;;;23.62;42.97;102266.31;4957251;28;20031;-81
2022/07/12 02:51:16;;;;;;;41.95;39.10;;;;;;;23.60;43.00;102267.72;4956095;28;20046;-80
2022/07/12 02:53:42;;;;;;;42.22;40.13;;;;;;;23.59;43.08;102268.84;4957204;28;20058;-80
2022/07/12 02:56:08;;;;;;;42.55;40.33;;;;;;;23.56;43.20;102275.75;4971902;28;20031;-81
2022/07/12 02:58:34;;;;;;;40.75;38.65;;;;;;;23.53;42.95;102268.06;4957054;28;20126;-80
2022/07/12 03:00:59;;;;;;;41.67;39.20;;;;;;;23.51;42.93;102275.78;4955985;28;20447;-80
2022/07/12 03:03:25;;;;;;;42.25;40.15;;;;;;;23.48;43.31;102268.94;4955717;28;20118;-80
2022/07/12 03:05:50;;;;;;;42.83;40.63;;;;;;;23.45;43.20;102272.28;4955651;29;20035;-77
2022/07/12 03:08:16;;;;;;;41.70;39.50;;;;;;;23.43;43.46;102270.94;4955692;29;20385;-78
2022/07/12 03:10:41;;;;;;;40.88;38.67;;;;;;;23.41;43.46;102268.47;4956392;28;20055;-79
2022/07/12 03:13:07;;;;;;;40.45;38.40;;;;;;;23.38;43.48;102269.03;4956898;28;20034;-81
2022/07/12 03:15:33;;;;;;;42.72;40.53;;;;;;;23.37;43.28;102267.41;4956631;28;20031;-80
2022/07/12 03:18:00;;;;;;;41.88;39.67;;;;;;;23.35;43.55;102264.13;4956799;28;20034;-81
2022/07/12 03:20:26;;;;;;;42.67;40.43;;;;;;;23.30;43.26;102265.00;4956553;28;20094;-79
2022/07/12 03:22:53;;;;;;;41.35;39.15;;;;;;;23.28;43.11;102266.41;4956483;28;20031;-81
2022/07/12 03:25:19;;;;;;;42.38;39.95;;;;;;;23.25;43.68;102267.81;4971274;28;20032;-80
2022/07/12 03:27:45;;;;;;;39.28;37.38;;;;;;;23.24;43.39;102266.19;4956647;28;20027;-81
2022/07/12 03:30:11;;;;;;;41.72;39.63;;;;;;;23.22;43.25;102273.91;4956378;28;20085;-78
2022/07/12 03:32:36;;;;;;;40.05;37.88;;;;;;;23.19;43.67;102271.75;4956337;28;20094;-79
2022/07/12 03:35:02;;;;;;;40.28;38.17;;;;;;;23.17;43.77;102273.97;4956414;28;20401;-79
2022/07/12 03:37:38;;;;;;;41.75;39.55;;;;;;;23.13;43.34;102267.38;4955976;28;20039;-81
2022/07/12 03:40:04;;;;;;;41.03;38.92;;;;;;;23.11;43.25;102275.94;4956343;28;20078;-81
2022/07/12 03:42:29;;;;;;;38.28;36.28;;;;;;;23.09;43.37;102272.66;4956105;28;20035;-78
2022/07/12 03:44:55;;;;;;;42.08;39.90;;;;;;;23.07;43.35;102285.09;4956198;28;20074;-81
2022/07/12 03:47:20;;;;;;;41.33;39.13;;;;;;;23.06;43.46;102275.19;4956920;28;20031;-80
2022/07/12 03:49:45;;;;;;;39.05;37.00;;;;;;;23.03;43.88;102276.59;4956610;28;20054;-82
2022/07/12 03:52:10;;;;;;;41.53;39.35;;;;;;;23.01;43.68;102275.22;4971713;28;20039;-81
2022/07/12 03:54:36;;;;;;;39.97;37.97;;;;;;;22.98;43.46;102271.13;4954919;29;20031;-81
2022/07/12 03:57:13;;;;;;;38.17;35.97;;;;;;;22.97;43.52;102276.88;4956209;28;20448;-82
2022/07/12 03:59:39;;;;;;;38.60;36.60;;;;;;;22.95;43.67;102279.09;4956402;28;20031;-79
2022/07/12 04:02:05;;;;;;;38.75;36.75;;;;;;;22.92;43.39;102285.19;4955595;28;20425;-81
2022/07/12 04:04:30;;;;;;;38.63;36.63;;;;;;;22.89;43.82;102290.16;4955719;28;20162;-76
2022/07/12 04:06:55;;;;;;;40.75;38.65;;;;;;;22.86;43.95;102290.75;4954907;29;20387;-81
2022/07/12 04:09:21;;;;;;;39.38;37.17;;;;;;;22.85;43.70;102291.84;4955654;28;20091;-82
2022/07/12 04:11:46;;;;;;;38.03;36.05;;;;;;;22.82;44.08;102289.66;4956240;28;20475;-80
2022/07/12 04:14:12;;;;;;;40.63;38.45;;;;;;;22.80;43.47;102286.38;4955704;28;20031;-81
2022/07/12 04:16:37;;;;;;;39.78;37.78;;;;;;;22.78;43.87;102288.63;4956374;28;20082;-79
2022/07/12 04:19:04;;;;;;;39.20;37.22;;;;;;;22.76;43.80;102296.34;4955897;28;20035;-80
2022/07/12 04:21:30;;;;;;;37.35;35.53;;;;;;;22.74;43.61;102293.06;4955739;28;20536;-79
2022/07/12 04:23:55;;;;;;;38.47;36.47;;;;;;;22.72;43.58;102299.97;4955658;28;20119;-80
2022/07/12 04:26:21;;;;;;;39.53;37.25;;;;;;;22.70;43.57;102300.22;4955501;28;20396;-80
2022/07/12 04:28:46;;;;;;;39.28;37.17;;;;;;;22.67;43.95;102304.38;4955374;28;20054;-78
2022/07/12 04:31:11;;;;;;;40.25;38.08;;;;;;;22.66;43.67;102308.25;4955456;28;20118;-80
2022/07/12 04:33:37;;;;;;;37.72;35.47;;;;;;;22.64;43.54;102306.91;4955161;28;20043;-78
2022/07/12 04:36:03;;;;;;;39.30;37.28;;;;;;;22.62;43.58;102309.94;4954589;28;20456;-79
2022/07/12 04:38:29;;;;;;;38.97;36.90;;;;;;;22.60;43.87;102305.81;4954821;28;20046;-78
2022/07/12 04:40:54;;;;;;;38.58;36.47;;;;;;;22.59;43.71;102309.69;4955540;28;20043;-80
2022/07/12 04:43:19;;;;;;;39.22;37.20;;;;;;;22.56;43.78;102302.00;4955488;28;20364;-80
2022/07/12 04:45:45;;;;;;;40.92;38.63;;;;;;;22.54;43.61;102301.47;4955204;28;20039;-80
2022/07/12 04:48:13;;;;;;;37.55;35.55;;;;;;;22.53;44.25;102295.13;4970303;28;20042;-80
2022/07/12 04:50:39;;;;;;;;;;;;;;;22.49;43.84;102296.81;4955862;28;20090;-80
2022/07/12 04:53:04;;;;;;;37.33;35.22;;;;;;;22.46;44.03;102295.44;4955324;28;20363;-78
2022/07/12 04:55:29;;;;;;;37.95;35.95;;;;;;;22.46;44.17;102297.38;4954235;29;20167;-80
2022/07/12 04:57:55;;;;;;;37.03;35.13;;;;;;;22.44;43.93;102302.34;4955195;28;20408;-80
2022/07/12 05:00:22;;;;;;;39.92;37.65;;;;;;;22.42;43.94;102302.63;4969906;28;20035;-80
2022/07/12 05:02:47;;;;;;;41.20;39.00;;;;;;;22.42;44.24;102307.31;4954973;28;20023;-79
2022/07/12 05:05:14;;;;;;;39.97;37.60;;;;;;;22.40;44.05;102304.88;4955331;28;20114;-80
2022/07/12 05:07:40;;;;;;;38.72;36.60;;;;;;;22.39;44.32;102314.22;4955162;28;20041;-81
2022/07/12 05:10:05;;;;;;;39.40;37.30;;;;;;;22.39;43.93;102316.16;4955251;28;20141;-81
2022/07/12 05:12:31;;;;;;;41.83;39.33;;;;;;;22.36;44.53;102313.97;4954948;28;20047;-81
2022/07/12 05:14:56;;;;;;;40.03;37.88;;;;;;;22.37;44.26;102315.59;4955218;28;20032;-80
2022/07/12 05:17:21;;;;;;;38.88;36.72;;;;;;;22.35;44.62;102324.16;4954688;28;20038;-79
2022/07/12 05:19:47;;;;;;;39.15;37.05;;;;;;;22.33;44.35;102318.13;4954158;29;20041;-81
2022/07/12 05:22:12;;;;;;;40.33;37.90;;;;;;;22.33;44.39;102320.88;4954916;28;20036;-81
2022/07/12 05:24:37;;;;;;;39.13;36.92;;;;;;;22.32;44.15;102319.22;4955636;28;20039;-81
2022/07/12 05:27:04;;;;;;;39.97;37.63;;;;;;;22.32;44.40;102324.72;4954962;28;20497;-80
2022/07/12 05:29:29;;;;;;;39.38;36.97;;;;;;;22.33;44.62;102336.56;4969317;28;20066;-79
2022/07/12 05:31:56;;;;;;;39.97;37.47;;;;;;;22.32;44.77;102332.16;4954609;28;20154;-81
2022/07/12 05:34:21;;;;;;;40.72;38.05;;;;;;;22.33;45.00;102342.88;4957784;28;20032;-79
2022/07/12 05:36:47;;;;;;;38.42;36.33;;;;;;;22.33;44.47;102342.88;4958811;28;20046;-81
2022/07/12 05:39:12;;;;;;;43.28;40.78;;;;;;;22.34;44.97;102349.22;4973240;28;20042;-84
2022/07/12 05:41:37;;;;;;;39.55;37.35;;;;;;;22.34;45.10;102347.28;4959389;28;20063;-86
2022/07/12 05:44:03;;;;;;;38.35;36.15;;;;;;;22.34;45.30;102347.28;4966659;28;20063;-89
2022/07/12 05:46:32;;;;;;;40.85;38.45;;;;;;;22.35;45.29;102348.94;4958918;28;20027;-80
2022/07/12 05:48:57;;;;;;;38.20;36.08;;;;;;;22.36;45.18;102358.84;4974010;28;20129;-79
2022/07/12 05:54:06;;;;;;;37.45;35.45;;;;;;;22.38;45.18;102358.56;4958031;29;20054;-83
2022/07/12 05:56:32;;;;;;;39.35;37.15;;;;;;;22.38;44.89;102362.13;4958056;28;20027;-82
2022/07/12 05:59:00;;;;;;;39.63;37.35;;;;;;;22.39;44.91;102361.00;4973009;28;20495;-82
2022/07/12 06:01:25;;;;;;;39.25;36.97;;;;;;;22.41;45.05;102360.75;4956727;29;20468;-82
2022/07/12 06:03:50;;;;;;;41.17;37.80;;;;;;;22.42;45.35;102363.19;4957885;28;20083;-82
2022/07/12 06:06:16;;;;;;;39.42;37.17;;;;;;;22.43;45.70;102366.78;4958453;28;20460;-80
2022/07/12 06:08:41;;;;;;;40.58;37.88;;;;;;;22.44;45.20;102363.75;4958306;28;20039;-82
2022/07/12 06:11:07;;;;;;;38.67;36.28;;;;;;;22.45;46.02;102365.41;4958086;28;20091;-84
2022/07/12 06:13:32;;;;;;;42.33;39.58;;;;;;;22.49;46.11;102375.84;4958134;28;20058;-82
2022/07/12 06:15:59;;;;;;;40.53;37.55;;;;;;;22.50;45.74;102367.28;4957902;28;20118;-82
2022/07/12 06:18:24;;;;;;;36.20;34.03;;;;;;;22.52;46.12;102372.53;4957602;28;20128;-80
2022/07/12 06:20:50;;;;;;;38.97;36.67;;;;;;;22.55;45.70;102371.94;4958078;28;20110;-80
2022/07/12 06:23:15;;;;;;;40.95;37.17;;;;;;;22.57;45.71;102373.31;4957765;28;20412;-84
2022/07/12 06:25:41;;;;;;;38.28;36.00;;;;;;;22.59;45.98;102368.34;4973205;28;20097;-79
2022/07/12 06:28:06;;;;;;;39.80;37.50;;;;;;;22.62;46.28;102372.47;4957344;28;20118;-82
2022/07/12 06:30:31;;;;;;;41.40;39.10;;;;;;;22.64;45.92;102364.75;4957671;28;20071;-88
2022/07/12 06:32:57;;;;;;;38.80;36.67;;;;;;;22.66;46.32;102370.78;4972968;28;20036;-88
2022/07/12 06:35:22;;;;;;;42.03;39.15;;;;;;;22.67;45.83;102364.16;4971742;28;20035;-75
2022/07/12 06:37:48;;;;;;;40.38;38.08;;;;;;;22.70;46.01;102371.84;4956968;28;20036;-79
2022/07/12 06:40:16;;;;;;;39.22;37.10;;;;;;;22.72;46.18;102374.34;4957256;28;20476;-81
2022/07/12 06:42:43;;;;;;;42.42;40.03;;;;;;;22.74;45.75;102364.66;4956689;28;20031;-81
2022/07/12 06:45:09;;;;;;;42.15;39.55;;;;;;;22.75;46.27;102365.50;4956249;28;20444;-81
2022/07/12 06:47:34;;;;;;;40.88;38.63;;;;;;;22.77;46.05;102358.59;4956703;28;20066;-80
2022/07/12 06:50:00;;;;;;;39.35;37.05;;;;;;;22.80;46.16;102362.69;4957261;28;20067;-78
2022/07/12 06:52:25;;;;;;;41.42;39.00;;;;;;;22.83;46.56;102370.38;4956604;28;20464;-79
2022/07/12 06:54:50;;;;;;;41.08;38.75;;;;;;;22.85;46.23;102369.00;4956518;28;20041;-81
2022/07/12 06:57:16;;;;;;;41.45;39.15;;;;;;;22.87;46.42;102358.50;4956437;28;20439;-80
2022/07/12 06:59:44;;;;;;;40.95;38.72;;;;;;;22.90;46.57;102355.19;4956569;28;20050;-80
2022/07/12 07:02:10;;;;;;;41.13;38.72;;;;;;;22.94;46.97;102360.13;4956623;28;20035;-78
2022/07/12 07:04:35;;;;;;;41.75;39.35;;;;;;;22.96;46.89;102361.50;4956285;28;20369;-81
2022/07/12 07:07:00;;;;;;;41.05;38.95;;;;;;;23.00;46.50;102372.78;4971240;28;20039;-79
2022/07/12 07:09:26;;;;;;;40.97;38.83;;;;;;;23.02;46.28;102370.56;4971090;28;20051;-80
2022/07/12 07:11:53;;;;;;;42.75;40.22;;;;;;;23.04;47.01;102377.44;4956516;28;20547;-75
2022/07/12 07:14:18;;;;;;;42.97;40.33;;;;;;;23.09;47.26;102377.41;4956115;28;20031;-75
2022/07/12 07:16:44;;;;;;;43.17;40.22;;;;;;;23.12;47.02;102370.47;4956505;28;20078;-77
2022/07/12 07:19:09;;;;;;;45.90;43.30;;;;;;;23.16;47.10;102370.72;4955356;29;20062;-77
2022/07/12 07:21:34;;;;;;;43.08;40.67;;;;;;;23.19;47.59;102365.47;4956452;28;20063;-75
2022/07/12 07:24:00;;;;;;;42.90;40.45;;;;;;;23.21;47.74;102374.28;4956384;28;20051;-76
2022/07/12 07:26:26;;;;;;;42.17;39.78;;;;;;;23.26;47.42;102373.41;4956326;28;20062;-75
2022/07/12 07:31:36;;;;;;;45.05;42.42;;;;;;;23.30;47.81;102372.53;4955705;29;20058;-77
2022/07/12 07:34:02;;;;;;;44.15;41.65;;;;;;;23.35;47.48;102366.16;4955805;28;20126;-76
2022/07/12 07:36:28;;;;;;;42.97;40.38;;;;;;;23.39;47.52;102369.16;4955429;28;20054;-79
2022/07/12 07:38:53;;;;;;;45.40;42.75;;;;;;;23.42;48.15;102369.38;4955466;28;20472;-77
2022/07/12 07:41:18;;;;;;;43.28;40.88;;;;;;;23.48;47.79;102367.41;4955472;28;20027;-76
2022/07/12 07:43:44;;;;;;;43.28;40.78;;;;;;;23.52;47.91;102363.78;4954340;28;20472;-76
2022/07/12 07:46:09;;;;;;;46.38;43.45;;;;;;;23.58;48.61;102372.81;4955834;28;20035;-78
2022/07/12 07:48:34;;;;;;;43.97;41.35;;;;;;;23.61;48.52;102363.97;4955963;28;20412;-77
2022/07/12 07:51:00;;;;;;;43.17;40.72;;;;;;;23.67;48.29;102367.50;4938373;29;20031;-75
2022/07/12 07:53:25;;;;;;;43.42;41.00;;;;;;;23.70;48.11;102362.22;4970824;28;20035;-76
2022/07/12 07:55:51;;;;;;;42.08;39.72;;;;;;;23.74;48.34;102368.00;4955099;28;20497;-77
2022/07/12 07:58:16;;;;;;;44.33;41.65;;;;;;;23.78;48.00;102371.81;4955254;28;20043;-77
2022/07/12 08:00:42;;;;;;;46.67;44.10;;;;;;;23.83;48.40;102363.47;4955244;28;20121;-77
2022/07/12 08:03:08;;;;;;;46.67;43.88;;;;;;;23.88;48.13;102368.94;4955790;28;20424;-81
2022/07/12 08:05:33;;;;;;;42.78;40.47;;;;;;;23.93;47.77;102368.06;4956702;28;20083;-82
2022/07/12 08:07:59;;;;;;;43.45;41.05;;;;;;;23.98;47.69;102362.47;4955566;28;20035;-79
2022/07/12 08:10:25;;;;;;;45.15;42.42;;;;;;;24.04;47.80;102366.00;4955260;28;20059;-79
2022/07/12 08:12:50;;;;;;;43.75;41.45;;;;;;;24.08;48.12;102359.59;4970235;28;20035;-77
2022/07/12 08:15:16;;;;;;;44.58;42.13;;;;;;;24.14;47.84;102366.72;4955386;28;20031;-78
2022/07/12 08:17:41;;;;;;;45.95;43.45;;;;;;;24.19;47.50;102358.34;4958327;28;20058;-80
2022/07/12 08:20:07;;;;;;;43.67;41.38;;;;;;;24.24;47.48;102356.63;4955406;28;20431;-82
2022/07/12 08:22:32;;;;;;;47.30;44.55;;;;;;;24.29;47.55;102359.31;4954195;29;20070;-79
2022/07/12 08:24:58;;;;;;;44.35;42.03;;;;;;;24.35;47.63;102361.72;4969718;28;20077;-79
2022/07/12 08:27:23;;;;;;;47.50;44.85;;;;;;;24.40;47.84;102361.66;4955434;28;20201;-79
2022/07/12 08:29:49;;;;;;;46.83;44.30;;;;;;;24.48;47.42;102364.91;4955458;28;20031;-76
2022/07/12 08:32:15;;;;;;;47.58;44.97;;;;;;;24.53;47.46;102364.84;4955575;28;20387;-75
2022/07/12 08:34:41;;;;;;;47.40;44.78;;;;;;;24.58;47.71;102362.81;4953666;29;20464;-74
2022/07/12 08:37:06;;;;;;;45.92;43.45;;;;;;;24.65;47.26;102361.63;4955484;28;20035;-76
2022/07/12 08:39:31;;;;;;;45.10;42.83;;;;;;;24.71;47.17;102363.19;4953930;29;20106;-76
2022/07/12 08:41:57;;;;;;;46.75;43.90;;;;;;;24.76;47.30;102363.94;4955127;28;20039;-76
2022/07/12 08:44:22;;;;;;;46.83;44.28;;;;;;;24.82;46.93;102362.75;4955327;28;20115;-75
2022/07/12 08:46:48;;;;;;;49.22;46.22;;;;;;;24.91;47.45;102367.59;4954766;28;20050;-75
2022/07/12 08:49:13;;;;;;;47.83;45.22;;;;;;;24.97;47.48;102372.75;4955146;28;20046;-76
2022/07/12 08:51:39;;;;;;;47.85;45.30;;;;;;;25.03;47.16;102370.72;4955239;28;20118;-77
2022/07/12 08:54:08;;;;;;;50.15;47.50;;;;;;;25.10;46.70;102375.84;4954759;28;20046;-76
2022/07/12 08:56:37;;;;;;;51.92;49.13;;;;;;;25.18;46.52;102377.97;4954860;28;20480;-75
2022/07/12 08:59:16;;;;;;;47.88;45.47;;;;;;;25.24;46.75;102371.22;4954671;28;20107;-75
2022/07/12 09:01:49;;;;;;;48.88;46.28;;;;;;;25.31;47.00;102379.13;4955123;28;20078;-81
2022/07/12 09:04:20;;;;;;;49.60;47.00;;;;;;;25.37;46.75;102375.13;4955012;28;20039;-76
2022/07/12 09:06:46;;;;;;;50.17;47.50;;;;;;;25.44;46.91;102379.13;4955138;28;20135;-75
2022/07/12 09:09:26;;;;;;;51.85;48.35;;;;;;;25.53;46.29;102375.66;4957390;28;20503;-77
2022/07/12 09:11:51;;;;;;;49.05;46.45;;;;;;;25.60;46.50;102370.56;4958696;28;20385;-76
2022/07/12 09:14:20;;;;;;;47.60;45.00;;;;;;;25.67;46.17;102377.34;4958351;28;20042;-76
2022/07/12 09:17:09;;;;;;;52.75;49.75;;;;;;;25.77;46.60;102369.97;4958865;28;20349;-74
2022/07/12 09:19:36;;;;;;;49.20;46.65;;;;;;;25.84;46.17;102373.16;4959275;28;20121;-75
2022/07/12 09:22:03;;;;;;;51.50;48.63;;;;;;;25.92;46.29;102369.69;4958137;28;20073;-74
2022/07/12 09:24:29;;;;;;;49.33;46.65;;;;;;;26.02;46.08;102371.44;4958992;28;20095;-75
2022/07/12 09:27:02;;;;;;;49.10;46.70;;;;;;;26.09;46.58;102364.34;4941414;29;20097;-74
2022/07/12 09:29:28;;;;;;;52.10;49.40;;;;;;;26.19;46.15;102368.06;4959154;28;20049;-71
2022/07/12 09:37:24;;;;;;;53.53;50.75;;;;;;;26.43;45.37;102359.47;4958467;29;20055;-77
2022/07/12 09:39:52;;;;;;;54.10;51.28;;;;;;;26.51;45.34;102359.56;4958142;28;20023;-76
2022/07/12 09:42:18;;;;;;;51.50;48.95;;;;;;;26.59;45.84;102363.59;4958123;28;20400;-78
2022/07/12 09:44:43;;;;;;;50.90;48.20;;;;;;;26.66;45.63;102352.88;4958054;28;20041;-77
2022/07/12 09:47:12;;;;;;;51.05;48.42;;;;;;;26.77;45.35;102359.00;4957873;28;20515;-77
2022/07/12 09:49:39;;;;;;;50.97;48.45;;;;;;;26.84;45.41;102355.78;4957942;28;20023;-76
2022/07/12 09:52:06;;;;;;;53.22;50.47;;;;;;;26.91;45.42;102348.69;4957951;28;20039;-76
2022/07/12 09:54:38;;;;;;;51.07;48.57;;;;;;;27.01;44.97;102346.75;4972761;28;20043;-79
2022/07/12 09:57:08;;;;;;;52.20;49.50;;;;;;;27.10;44.93;102347.66;4958338;28;20456;-78
2022/07/12 09:59:34;;;;;;;55.20;52.50;;;;;;;27.18;44.65;102338.59;4958611;28;20031;-77
2022/07/12 10:02:00;;;;;;;54.03;51.33;;;;;;;27.27;44.61;102338.66;4957913;28;20063;-77
2022/07/12 10:04:29;;;;;;;53.53;50.92;;;;;;;27.37;44.68;102350.28;4957794;28;20042;-76
2022/07/12 10:06:55;;;;;;;56.45;53.08;;;;;;;27.46;44.34;102357.84;4957676;28;20043;-78
2022/07/12 10:09:21;;;;;;;55.03;52.25;;;;;;;27.53;44.17;102367.34;4957382;28;20139;-78
2022/07/12 10:11:47;;;;;;;60.03;57.05;;;;;;;27.62;44.33;102361.84;4958122;28;20062;-79
2022/07/12 10:14:14;;;;;;;50.95;48.47;;;;;;;27.70;44.01;102357.47;4972878;28;20082;-77
2022/07/12 10:16:43;;;;;;;54.25;51.58;;;;;;;27.79;43.85;102359.13;4972203;28;20039;-79
2022/07/12 10:19:28;;;;;;;53.40;50.70;;;;;;;27.90;43.71;102358.88;4956597;28;20107;-79
2022/07/12 10:21:58;;;;;;;58.65;55.60;;;;;;;27.98;43.40;102353.34;4957175;28;20031;-80
2022/07/12 10:24:32;;;;;;;53.55;50.95;;;;;;;28.09;43.37;102353.03;4957310;28;20405;-78
2022/07/12 10:27:13;;;;;;;55.55;52.90;;;;;;;28.16;43.29;102353.38;4957173;28;20087;-78
2022/07/12 10:29:40;;;;;;;59.80;56.45;;;;;;;28.25;43.24;102351.44;4957508;28;20082;-79
2022/07/12 10:32:24;;;;;;;56.15;53.45;;;;;;;28.36;42.93;102352.75;4957625;28;20031;-79
2022/07/12 10:34:58;;;;;;;58.50;55.55;;;;;;;28.44;42.78;102351.97;4957218;28;20074;-79
2022/07/12 10:37:24;;;;;;;54.45;51.78;;;;;;;28.53;42.88;102363.13;4959666;28;20032;-78
2022/07/12 10:40:26;;;;;;;60.40;57.40;;;;;;;28.64;42.83;102358.84;4957674;29;20090;-80
2022/07/12 10:43:06;;;;;;;59.55;56.75;;;;;;;28.72;42.59;102351.66;4955127;29;20477;-80
2022/07/12 10:45:38;;;;;;;58.85;56.05;;;;;;;28.81;42.60;102351.66;4956778;28;20119;-81
2022/07/12 10:48:05;;;;;;;61.58;58.63;;;;;;;28.88;42.67;102347.22;4957780;28;20035;-77
2022/07/12 10:53:27;;;;;;;59.05;56.05;;;;;;;29.05;42.31;102351.13;4956769;28;20086;-79
2022/07/12 10:56:04;;;;;;;61.05;58.05;;;;;;;29.14;41.94;102351.97;4956683;28;20032;-80
2022/07/12 10:58:34;;;;;;;60.88;57.88;;;;;;;29.21;41.79;102340.34;4956676;28;20118;-80
2022/07/12 11:01:02;;;;;;;62.20;59.20;;;;;;;29.28;41.68;102330.31;4956427;28;20138;-78
2022/07/12 11:03:37;;;;;;;62.08;59.03;;;;;;;29.34;41.30;102331.75;4956979;28;20037;-78
2022/07/12 11:06:03;;;;;;;63.00;59.92;;;;;;;29.43;41.29;102328.94;4957050;28;20094;-82
2022/07/12 11:08:29;;;;;;;60.22;57.38;;;;;;;29.52;41.01;102331.69;4956734;28;20042;-79
2022/07/12 11:10:58;;;;;;;62.97;59.88;;;;;;;29.60;40.73;102339.19;4957525;28;20141;-80
2022/07/12 11:13:24;;;;;;;62.40;59.40;;;;;;;29.66;41.00;102335.13;4956524;28;20078;-80
2022/07/12 11:15:59;;;;;;;61.90;58.45;;;;;;;29.75;40.23;102332.28;4956474;28;20035;-79
2022/07/12 11:18:32;;;;;;;64.65;61.58;;;;;;;29.82;40.26;102328.97;4956403;28;20105;-80
2022/07/12 11:20:59;;;;;;;69.28;65.32;;;;;;;29.88;39.95;102331.22;4956624;28;20114;-83